Time;durP1;ratioP1;P1;durP2;ratioP2;P2;SDS_P1;SDS_P2;PMS_P1;PMS_P2;Temp;Humidity;BMP_temperature;BMP_pressure;BME280_temperature;BME280_humidity;BME280_pressure;Samples;Min_cycle;Max_cycle;Signal;HPM_P1;HPM_P2
2022/01/30 00:00:00;;;;;;;18.75;3.30;;;8.40;99.90;;;;;;6693782;88;20231;-75
2022/01/30 00:10:01;;;;;;;22.00;3.03;;;8.30;99.90;;;;;;6668644;88;20275;-75
2022/01/30 00:20:05;;;;;;;14.18;3.42;;;8.10;99.90;;;;;;6733375;88;20188;-75
2022/01/30 00:30:08;;;;;;;15.65;2.72;;;8.00;99.90;;;;;;6732759;88;20188;-75
2022/01/30 00:40:10;;;;;;;10.98;2.58;;;7.90;99.90;;;;;;6732634;88;20248;-75
2022/01/30 00:50:10;;;;;;;17.77;2.55;;;7.90;99.90;;;;;;6733196;88;20205;-76
2022/01/30 01:00:12;;;;;;;15.35;2.65;;;7.80;99.90;;;;;;6733712;88;20219;-75
2022/01/30 01:10:31;;;;;;;15.43;3.35;;;7.70;99.90;;;;;;6736560;88;20258;-74
2022/01/30 01:30:51;;;;;;;15.45;2.28;;;7.50;99.90;;;;;;6735848;88;20200;-75
2022/01/30 01:40:53;;;;;;;15.48;2.35;;;7.20;99.90;;;;;;6738945;88;20219;-74
2022/01/30 01:51:04;;;;;;;12.40;2.28;;;7.00;99.90;;;;;;6733129;88;20203;-73
2022/01/30 02:01:04;;;;;;;16.20;2.03;;;6.80;99.90;;;;;;6726407;88;20180;-74
2022/01/30 02:11:12;;;;;;;20.23;2.80;;;6.60;99.90;;;;;;6728441;88;20287;-74
2022/01/30 02:31:35;;;;;;;22.70;2.72;;;6.20;99.90;;;;;;6716659;88;20183;-75
2022/01/30 02:41:38;;;;;;;20.23;3.30;;;6.10;99.90;;;;;;6733661;88;20243;-73
2022/01/30 02:51:47;;;;;;;17.58;2.22;;;6.00;99.90;;;;;;6730459;88;20181;-74
2022/01/30 03:01:48;;;;;;;17.65;2.90;;;5.80;99.90;;;;;;6731719;88;20306;-74
2022/01/30 03:11:49;;;;;;;17.10;2.83;;;5.80;99.90;;;;;;6730933;88;20275;-75
2022/01/30 03:21:49;;;;;;;22.02;2.42;;;5.70;99.90;;;;;;6728988;88;20193;-74
2022/01/30 03:31:50;;;;;;;21.15;2.78;;;5.60;99.90;;;;;;6724853;88;21062;-74
2022/01/30 03:41:50;;;;;;;23.13;3.07;;;5.50;99.90;;;;;;6730406;88;20254;-74
2022/01/30 03:51:51;;;;;;;23.17;2.65;;;5.40;99.90;;;;;;6731008;88;20970;-74
2022/01/30 04:01:52;;;;;;;19.02;2.47;;;5.30;99.90;;;;;;6733058;88;20732;-74
2022/01/30 04:11:53;;;;;;;15.95;2.30;;;5.30;99.90;;;;;;6733119;88;20214;-74
2022/01/30 04:21:53;;;;;;;17.60;2.28;;;5.30;99.90;;;;;;6738209;88;20247;-75
2022/01/30 04:31:54;;;;;;;13.88;2.37;;;5.40;99.90;;;;;;6740795;88;20220;-75
2022/01/30 04:42:23;;;;;;;19.02;2.87;;;5.60;99.90;;;;;;6740283;88;21119;-74
2022/01/30 05:03:01;;;;;;;19.50;2.50;;;5.30;99.90;;;;;;6732998;88;20353;-74
2022/01/30 05:13:05;;;;;;;18.62;1.85;;;5.30;99.90;;;;;;6732771;88;20185;-74
2022/01/30 05:23:05;;;;;;;17.30;2.42;;;5.40;99.90;;;;;;6733109;88;20648;-75
2022/01/30 05:33:06;;;;;;;15.75;2.35;;;5.50;99.90;;;;;;6728098;88;20233;-74
2022/01/30 05:43:07;;;;;;;18.75;2.60;;;5.50;99.90;;;;;;6723343;88;20197;-74
2022/01/30 05:53:08;;;;;;;19.77;2.50;;;5.60;99.90;;;;;;6732894;88;20197;-74
2022/01/30 06:03:09;;;;;;;17.98;2.80;;;5.60;99.90;;;;;;6732233;88;20214;-74
2022/01/30 06:13:50;;;;;;;22.55;2.20;;;5.50;99.90;;;;;;6698361;77;20237;-77
2022/01/30 06:23:51;;;;;;;19.37;2.75;;;5.50;99.90;;;;;;6618874;89;20197;-77
2022/01/30 06:33:51;;;;;;;14.60;2.00;;;5.50;99.90;;;;;;6612509;88;20276;-77
2022/01/30 06:43:52;;;;;;;14.93;1.92;;;5.40;99.90;;;;;;6617215;88;20196;-76
2022/01/30 06:53:52;;;;;;;16.77;2.97;;;5.50;99.90;;;;;;6621539;89;20233;-74
2022/01/30 07:03:53;;;;;;;13.60;1.85;;;5.30;99.90;;;;;;6615568;88;20891;-77
2022/01/30 07:13:54;;;;;;;16.60;2.20;;;5.10;99.90;;;;;;6611075;88;21295;-77
2022/01/30 07:23:54;;;;;;;16.17;2.17;;;5.10;99.90;;;;;;6601101;89;20241;-77
2022/01/30 07:33:55;;;;;;;13.73;1.83;;;5.20;99.90;;;;;;6611706;88;20223;-77
2022/01/30 07:43:55;;;;;;;14.93;2.00;;;5.30;99.90;;;;;;6638657;88;20755;-77
2022/01/30 07:53:56;;;;;;;12.30;2.10;;;5.20;99.90;;;;;;6649210;88;20496;-77
2022/01/30 08:03:56;;;;;;;14.57;1.80;;;5.30;99.90;;;;;;6624272;88;20215;-77
2022/01/30 08:13:57;;;;;;;11.15;1.65;;;5.40;99.90;;;;;;6652451;88;20269;-77
2022/01/30 08:23:57;;;;;;;11.35;1.67;;;5.40;99.90;;;;;;6641285;88;20213;-76
2022/01/30 08:33:58;;;;;;;12.27;2.13;;;5.40;99.90;;;;;;6622527;88;20328;-76
2022/01/30 08:43:58;;;;;;;14.75;2.72;;;5.60;99.90;;;;;;6606517;88;20546;-76
2022/01/30 08:53:59;;;;;;;18.33;2.03;;;5.60;99.90;;;;;;6636818;88;20342;-77
2022/01/30 09:04:00;;;;;;;12.60;1.92;;;5.70;99.90;;;;;;6629387;88;20237;-77
2022/01/30 09:14:00;;;;;;;16.58;2.20;;;5.90;99.90;;;;;;6626191;88;20206;-77
2022/01/30 09:24:01;;;;;;;16.60;2.40;;;5.90;99.90;;;;;;6627466;88;20662;-76
2022/01/30 09:34:01;;;;;;;13.32;1.90;;;6.30;99.90;;;;;;6608763;88;20673;-77
2022/01/30 09:44:02;;;;;;;20.88;2.05;;;6.80;99.90;;;;;;6611844;88;20762;-77
2022/01/30 09:54:04;;;;;;;14.50;2.10;;;7.00;99.90;;;;;;6635400;88;20524;-77
2022/01/30 10:04:06;;;;;;;14.50;1.90;;;7.10;99.90;;;;;;6674843;88;20195;-77
2022/01/30 10:14:11;;;;;;;13.07;2.03;;;7.00;99.90;;;;;;6604331;88;20215;-80
2022/01/30 10:24:19;;;;;;;16.02;2.00;;;7.10;99.90;;;;;;6611074;89;20302;-79
2022/01/30 10:34:20;;;;;;;17.27;2.10;;;7.10;99.90;;;;;;6647872;88;20666;-78
2022/01/30 10:44:20;;;;;;;15.43;2.62;;;7.60;99.90;;;;;;6597463;89;20198;-78
2022/01/30 10:54:21;;;;;;;19.00;2.42;;;8.20;99.90;;;;;;6608991;88;20186;-78
2022/01/30 11:04:30;;;;;;;15.32;2.50;;;8.60;99.90;;;;;;6613789;89;20212;-79
2022/01/30 11:14:38;;;;;;;14.40;2.37;;;8.50;99.90;;;;;;6616158;89;20685;-79
2022/01/30 11:24:49;;;;;;;15.65;2.30;;;8.80;99.90;;;;;;6618308;89;20274;-78
2022/01/30 11:34:49;;;;;;;12.73;2.40;;;8.60;99.90;;;;;;6612443;89;20630;-78
2022/01/30 11:45:11;;;;;;;21.92;2.45;;;7.90;99.90;;;;;;6612231;89;20244;-78
2022/01/30 11:55:38;;;;;;;16.15;2.03;;;7.60;99.90;;;;;;6612493;89;20265;-77
2022/01/30 12:05:38;;;;;;;18.83;2.50;;;7.60;99.90;;;;;;6608283;89;20227;-77
2022/01/30 12:15:44;;;;;;;15.38;2.37;;;7.80;99.90;;;;;;6692926;77;20495;-75
2022/01/30 12:25:53;;;;;;;17.17;3.03;;;7.80;99.90;;;;;;6721766;88;20282;-76
2022/01/30 12:35:55;;;;;;;17.98;2.87;;;7.50;99.90;;;;;;6717007;88;20663;-76
2022/01/30 12:46:07;;;;;;;23.38;2.92;;;7.70;99.90;;;;;;6720186;88;20193;-77
2022/01/30 12:56:08;;;;;;;18.98;2.90;;;9.00;99.90;;;;;;6720214;88;20181;-77
2022/01/30 13:06:09;;;;;;;26.42;2.65;;;9.10;99.90;;;;;;6701160;88;20188;-77
2022/01/30 13:16:11;;;;;;;18.70;2.70;;;8.90;99.90;;;;;;6635879;89;20670;-77
2022/01/30 13:26:37;;;;;;;16.80;2.58;;;8.90;99.90;;;;;;6627936;88;20313;-77
2022/01/30 13:36:39;;;;;;;17.83;2.70;;;8.70;99.80;;;;;;6636002;88;20769;-77
2022/01/30 13:57:05;;;;;;;13.85;2.45;;;9.40;99.90;;;;;;6637560;89;20201;-77
2022/01/30 14:07:23;;;;;;;17.05;2.95;;;8.60;99.90;;;;;;6650017;88;20243;-77
2022/01/30 14:17:24;;;;;;;19.73;2.70;;;7.90;99.90;;;;;;6681666;88;20197;-77
2022/01/30 14:27:26;;;;;;;21.65;2.78;;;7.80;99.90;;;;;;6721571;88;20264;-77
2022/01/30 14:37:27;;;;;;;16.20;2.55;;;8.50;99.90;;;;;;6718292;88;20237;-77
2022/01/30 14:47:29;;;;;;;15.98;2.92;;;9.20;99.90;;;;;;6709966;88;20178;-78
2022/01/30 14:57:30;;;;;;;16.33;2.50;;;8.40;99.90;;;;;;6706464;88;20214;-79
2022/01/30 15:07:30;;;;;;;18.75;2.70;;;7.70;99.90;;;;;;6706101;88;20490;-76
2022/01/30 15:17:34;;;;;;;20.08;2.67;;;7.30;99.90;;;;;;6706604;88;21124;-77
2022/01/30 15:27:37;;;;;;;18.02;3.03;;;7.20;99.90;;;;;;6721176;88;20177;-77
2022/01/30 15:37:37;;;;;;;19.42;2.47;;;7.10;99.90;;;;;;6729950;88;20197;-78
2022/01/30 15:57:59;;;;;;;21.55;3.12;;;7.00;99.90;;;;;;6726827;88;20166;-77
2022/01/30 16:08:01;;;;;;;20.15;3.30;;;6.90;99.90;;;;;;6725135;88;20315;-77
2022/01/30 16:18:02;;;;;;;22.58;3.03;;;6.70;99.90;;;;;;6724921;88;20242;-78
2022/01/30 16:28:03;;;;;;;16.55;2.85;;;6.50;99.90;;;;;;6725195;88;20612;-78
2022/01/30 16:38:04;;;;;;;15.35;2.80;;;6.10;99.90;;;;;;6720377;88;20213;-77
2022/01/30 16:48:15;;;;;;;19.55;2.50;;;5.80;99.90;;;;;;6712769;88;20189;-77
2022/01/30 16:58:15;;;;;;;14.50;2.47;;;5.70;99.90;;;;;;6708130;88;20202;-77
2022/01/30 17:08:18;;;;;;;17.17;2.65;;;5.70;99.90;;;;;;6708943;88;20371;-77
2022/01/30 17:18:19;;;;;;;20.55;2.47;;;5.50;99.90;;;;;;6710675;88;20914;-77
2022/01/30 17:28:20;;;;;;;15.82;2.67;;;5.30;99.90;;;;;;6718341;88;20209;-77
2022/01/30 17:38:21;;;;;;;16.48;2.40;;;5.10;99.90;;;;;;6720286;88;20215;-77
2022/01/30 17:48:22;;;;;;;12.85;2.60;;;4.90;99.90;;;;;;6722634;88;20193;-77
2022/01/30 17:58:23;;;;;;;21.85;3.70;;;4.80;99.90;;;;;;6722607;88;20209;-76
2022/01/30 18:08:23;;;;;;;17.52;3.15;;;4.70;99.90;;;;;;6724027;88;20969;-76
2022/01/30 18:18:24;;;;;;;20.50;3.80;;;4.60;99.90;;;;;;6755054;77;20289;-75
2022/01/30 18:28:25;;;;;;;15.68;3.55;;;4.50;99.90;;;;;;6759623;87;20184;-74
2022/01/30 18:48:26;;;;;;;18.73;3.75;;;4.40;99.90;;;;;;6757114;87;20520;-77
2022/01/30 18:58:27;;;;;;;14.63;3.10;;;4.40;99.90;;;;;;6756469;88;20187;-77
2022/01/30 19:08:28;;;;;;;20.08;3.17;;;4.30;99.90;;;;;;6755008;88;20232;-74
2022/01/30 19:18:29;;;;;;;21.85;3.80;;;4.40;99.90;;;;;;6757886;87;20824;-77
2022/01/30 19:28:29;;;;;;;16.30;5.50;;;4.30;99.90;;;;;;6754515;88;20535;-75
2022/01/30 19:38:31;;;;;;;17.77;3.22;;;4.30;99.90;;;;;;6751705;88;20220;-76
2022/01/30 19:48:32;;;;;;;16.55;3.30;;;4.30;99.90;;;;;;6753880;87;20346;-77
2022/01/30 19:58:33;;;;;;;14.38;3.83;;;4.20;99.90;;;;;;6751828;88;20188;-76
2022/01/30 20:08:33;;;;;;;11.12;3.15;;;4.10;99.90;;;;;;6755969;88;20204;-75
2022/01/30 20:18:37;;;;;;;14.57;3.03;;;3.90;99.90;;;;;;6756490;87;20678;-76
2022/01/30 20:28:38;;;;;;;12.18;2.87;;;4.00;99.90;;;;;;6756664;87;20194;-75
2022/01/30 20:38:39;;;;;;;16.77;4.20;;;4.10;99.90;;;;;;6759804;87;20176;-75
2022/01/30 20:48:41;;;;;;;12.50;3.08;;;4.10;99.90;;;;;;6758912;88;20353;-77
2022/01/30 20:58:42;;;;;;;12.05;2.60;;;4.30;99.90;;;;;;6749714;88;20177;-74
2022/01/30 21:08:50;;;;;;;13.45;2.53;;;4.30;99.90;;;;;;6753047;88;20234;-74
2022/01/30 21:18:51;;;;;;;12.23;3.28;;;4.40;99.90;;;;;;6751845;87;20181;-76
2022/01/30 21:28:51;;;;;;;10.50;2.60;;;4.30;99.90;;;;;;6750433;87;20610;-75
2022/01/30 21:38:52;;;;;;;11.75;2.37;;;4.20;99.90;;;;;;6748571;88;20213;-75
2022/01/30 21:48:52;;;;;;;15.35;2.78;;;4.10;99.90;;;;;;6746901;87;20212;-75
2022/01/30 21:58:53;;;;;;;14.93;2.62;;;4.10;99.90;;;;;;6741671;88;20193;-75
2022/01/30 22:08:53;;;;;;;10.13;2.50;;;4.00;99.90;;;;;;6749711;87;20717;-74
2022/01/30 22:18:54;;;;;;;9.10;2.83;;;4.10;99.90;;;;;;6750280;87;20247;-75
2022/01/30 22:28:55;;;;;;;6.32;1.90;;;4.00;99.90;;;;;;6754154;88;20801;-74
2022/01/30 22:38:55;;;;;;;5.55;2.10;;;4.10;99.90;;;;;;6755755;87;20176;-74
2022/01/30 22:48:57;;;;;;;10.27;2.22;;;4.00;99.90;;;;;;6745176;88;20579;-75
2022/01/30 22:58:57;;;;;;;8.77;2.65;;;4.00;99.90;;;;;;6763393;87;20651;-74
2022/01/30 23:08:58;;;;;;;12.05;3.47;;;3.90;99.90;;;;;;6755894;88;20203;-75
2022/01/30 23:18:59;;;;;;;12.20;3.28;;;3.60;99.90;;;;;;6751585;87;20545;-75
2022/01/30 23:29:06;;;;;;;7.93;2.47;;;3.50;99.90;;;;;;6755860;88;20189;-75
2022/01/30 23:39:09;;;;;;;9.52;2.85;;;3.40;99.90;;;;;;6763462;87;20185;-76
2022/01/30 23:49:10;;;;;;;11.10;2.33;;;3.30;99.90;;;;;;6756805;87;20186;-75
2022/01/30 23:59:10;;;;;;;13.25;2.17;;;3.40;99.90;;;;;;6757658;87;20185;-75
